sensor_id;sensor_type;location;lat;lon;timestamp;temperature;humidity
18773;DHT22;9515;50.810;4.418;2022-07-15T13:35:38;38.30;90.80
18773;DHT22;9515;50.810;4.418;2022-07-15T13:38:04;39.30;90.20
18773;DHT22;9515;50.810;4.418;2022-07-15T13:40:30;39.50;90.00
18773;DHT22;9515;50.810;4.418;2022-07-15T13:42:56;40.30;87.60
18773;DHT22;9515;50.810;4.418;2022-07-15T13:45:21;40.10;86.30
18773;DHT22;9515;50.810;4.418;2022-07-15T13:47:48;39.40;86.60
18773;DHT22;9515;50.810;4.418;2022-07-15T13:50:14;39.50;86.80
18773;DHT22;9515;50.810;4.418;2022-07-15T13:52:59;40.10;86.10
18773;DHT22;9515;50.810;4.418;2022-07-15T13:55:25;40.60;86.30
18773;DHT22;9515;50.810;4.418;2022-07-15T13:57:51;40.60;84.70
18773;DHT22;9515;50.810;4.418;2022-07-15T14:00:21;40.00;84.70
18773;DHT22;9515;50.810;4.418;2022-07-15T14:02:48;39.10;86.10
18773;DHT22;9515;50.810;4.418;2022-07-15T14:05:15;38.60;86.10
18773;DHT22;9515;50.810;4.418;2022-07-15T14:07:41;37.40;88.90
18773;DHT22;9515;50.810;4.418;2022-07-15T14:10:07;35.80;90.20
18773;DHT22;9515;50.810;4.418;2022-07-15T14:12:33;34.20;91.50
18773;DHT22;9515;50.810;4.418;2022-07-15T14:14:59;33.50;92.40
18773;DHT22;9515;50.810;4.418;2022-07-15T14:17:25;33.10;91.60
18773;DHT22;9515;50.810;4.418;2022-07-15T14:19:51;32.90;92.10
18773;DHT22;9515;50.810;4.418;2022-07-15T14:22:16;32.50;92.40
18773;DHT22;9515;50.810;4.418;2022-07-15T14:24:42;32.50;93.20
18773;DHT22;9515;50.810;4.418;2022-07-15T14:27:08;32.10;93.00
18773;DHT22;9515;50.810;4.418;2022-07-15T14:29:34;31.50;93.50
18773;DHT22;9515;50.810;4.418;2022-07-15T14:32:00;31.20;93.80
18773;DHT22;9515;50.810;4.418;2022-07-15T14:34:26;30.90;94.10
18773;DHT22;9515;50.810;4.418;2022-07-15T14:36:52;30.30;94.50
18773;DHT22;9515;50.810;4.418;2022-07-15T14:39:17;30.00;94.70
18773;DHT22;9515;50.810;4.418;2022-07-15T14:41:43;29.90;95.10
18773;DHT22;9515;50.810;4.418;2022-07-15T14:44:09;30.00;95.20
18773;DHT22;9515;50.810;4.418;2022-07-15T14:46:34;30.00;95.20
18773;DHT22;9515;50.810;4.418;2022-07-15T14:49:00;29.90;95.10
18773;DHT22;9515;50.810;4.418;2022-07-15T14:51:26;29.80;95.80
18773;DHT22;9515;50.810;4.418;2022-07-15T14:53:51;30.00;95.90
18773;DHT22;9515;50.810;4.418;2022-07-15T14:56:17;29.80;95.40
18773;DHT22;9515;50.810;4.418;2022-07-15T14:58:43;29.70;95.80
18773;DHT22;9515;50.810;4.418;2022-07-15T15:01:09;29.60;95.90
18773;DHT22;9515;50.810;4.418;2022-07-15T15:03:34;29.50;96.10
18773;DHT22;9515;50.810;4.418;2022-07-15T15:06:00;29.40;95.80
18773;DHT22;9515;50.810;4.418;2022-07-15T15:08:26;29.20;96.30
18773;DHT22;9515;50.810;4.418;2022-07-15T15:10:52;29.20;96.30
18773;DHT22;9515;50.810;4.418;2022-07-15T15:13:18;29.20;96.40
18773;DHT22;9515;50.810;4.418;2022-07-15T15:15:43;28.90;96.20
18773;DHT22;9515;50.810;4.418;2022-07-15T15:18:09;29.20;95.80
18773;DHT22;9515;50.810;4.418;2022-07-15T15:20:35;29.30;96.20
18773;DHT22;9515;50.810;4.418;2022-07-15T15:23:00;29.10;95.50
18773;DHT22;9515;50.810;4.418;2022-07-15T15:25:26;28.40;96.10
18773;DHT22;9515;50.810;4.418;2022-07-15T15:28:10;28.30;96.80
18773;DHT22;9515;50.810;4.418;2022-07-15T15:30:36;28.60;96.50
18773;DHT22;9515;50.810;4.418;2022-07-15T15:33:02;28.80;96.90
18773;DHT22;9515;50.810;4.418;2022-07-15T15:35:28;28.60;97.00
18773;DHT22;9515;50.810;4.418;2022-07-15T15:37:53;28.60;96.70
18773;DHT22;9515;50.810;4.418;2022-07-15T15:40:19;28.60;95.80
18773;DHT22;9515;50.810;4.418;2022-07-15T15:42:45;28.20;96.10
18773;DHT22;9515;50.810;4.418;2022-07-15T15:45:11;28.10;96.90
18773;DHT22;9515;50.810;4.418;2022-07-15T15:47:36;28.20;97.20
18773;DHT22;9515;50.810;4.418;2022-07-15T15:50:03;28.10;97.30
18773;DHT22;9515;50.810;4.418;2022-07-15T15:52:35;27.80;96.60
18773;DHT22;9515;50.810;4.418;2022-07-15T15:55:01;27.70;97.10
18773;DHT22;9515;50.810;4.418;2022-07-15T15:57:26;27.60;96.80
18773;DHT22;9515;50.810;4.418;2022-07-15T15:59:52;27.50;96.80
18773;DHT22;9515;50.810;4.418;2022-07-15T16:02:18;27.50;96.60
18773;DHT22;9515;50.810;4.418;2022-07-15T16:04:43;27.80;97.00
18773;DHT22;9515;50.810;4.418;2022-07-15T16:07:09;28.10;97.20
18773;DHT22;9515;50.810;4.418;2022-07-15T16:09:34;28.30;96.90
18773;DHT22;9515;50.810;4.418;2022-07-15T16:12:00;28.30;97.40
18773;DHT22;9515;50.810;4.418;2022-07-15T16:14:26;28.50;97.40
18773;DHT22;9515;50.810;4.418;2022-07-15T16:16:52;28.40;96.70
18773;DHT22;9515;50.810;4.418;2022-07-15T16:19:18;28.30;96.60
18773;DHT22;9515;50.810;4.418;2022-07-15T16:21:44;28.40;97.00
18773;DHT22;9515;50.810;4.418;2022-07-15T16:24:28;28.30;96.90
18773;DHT22;9515;50.810;4.418;2022-07-15T16:26:54;28.30;97.40
18773;DHT22;9515;50.810;4.418;2022-07-15T16:29:19;28.10;97.90
18773;DHT22;9515;50.810;4.418;2022-07-15T16:31:45;28.00;97.90
18773;DHT22;9515;50.810;4.418;2022-07-15T16:34:11;28.10;97.60
18773;DHT22;9515;50.810;4.418;2022-07-15T16:36:36;28.00;97.30
18773;DHT22;9515;50.810;4.418;2022-07-15T16:39:02;28.00;97.70
18773;DHT22;9515;50.810;4.418;2022-07-15T16:41:28;27.70;97.40
18773;DHT22;9515;50.810;4.418;2022-07-15T16:43:54;27.50;97.90
18773;DHT22;9515;50.810;4.418;2022-07-15T16:46:19;27.40;98.30
18773;DHT22;9515;50.810;4.418;2022-07-15T16:48:45;27.40;98.00
18773;DHT22;9515;50.810;4.418;2022-07-15T16:51:10;27.50;98.50
18773;DHT22;9515;50.810;4.418;2022-07-15T16:53:36;27.60;98.70
18773;DHT22;9515;50.810;4.418;2022-07-15T16:56:02;27.60;98.90
18773;DHT22;9515;50.810;4.418;2022-07-15T16:58:28;27.70;98.90
18773;DHT22;9515;50.810;4.418;2022-07-15T17:00:54;27.90;98.90
18773;DHT22;9515;50.810;4.418;2022-07-15T17:03:20;27.90;98.70
18773;DHT22;9515;50.810;4.418;2022-07-15T17:05:48;28.00;98.90
18773;DHT22;9515;50.810;4.418;2022-07-15T17:08:13;28.30;98.30
18773;DHT22;9515;50.810;4.418;2022-07-15T17:10:39;28.20;98.50
18773;DHT22;9515;50.810;4.418;2022-07-15T17:13:05;27.80;98.90
18773;DHT22;9515;50.810;4.418;2022-07-15T17:15:31;27.90;99.00
18773;DHT22;9515;50.810;4.418;2022-07-15T17:17:57;27.80;99.10
18773;DHT22;9515;50.810;4.418;2022-07-15T17:20:23;27.70;99.00
18773;DHT22;9515;50.810;4.418;2022-07-15T17:22:49;27.50;99.10
18773;DHT22;9515;50.810;4.418;2022-07-15T17:25:14;27.50;99.40
18773;DHT22;9515;50.810;4.418;2022-07-15T17:27:40;27.50;99.60
18773;DHT22;9515;50.810;4.418;2022-07-15T17:30:07;27.50;99.30
18773;DHT22;9515;50.810;4.418;2022-07-15T17:32:33;27.10;99.80
18773;DHT22;9515;50.810;4.418;2022-07-15T17:34:58;26.80;99.90
18773;DHT22;9515;50.810;4.418;2022-07-15T17:37:24;26.60;99.90
18773;DHT22;9515;50.810;4.418;2022-07-15T17:39:50;26.60;99.90
18773;DHT22;9515;50.810;4.418;2022-07-15T17:42:15;26.50;99.90
18773;DHT22;9515;50.810;4.418;2022-07-15T17:44:41;26.40;99.90
18773;DHT22;9515;50.810;4.418;2022-07-15T17:47:07;26.40;99.90
18773;DHT22;9515;50.810;4.418;2022-07-15T17:49:32;26.50;99.90
18773;DHT22;9515;50.810;4.418;2022-07-15T17:51:58;26.60;99.90
18773;DHT22;9515;50.810;4.418;2022-07-15T17:54:24;26.70;99.90
18773;DHT22;9515;50.810;4.418;2022-07-15T17:56:50;26.90;99.90
18773;DHT22;9515;50.810;4.418;2022-07-15T17:59:16;26.90;99.90
18773;DHT22;9515;50.810;4.418;2022-07-15T18:01:43;26.80;99.90
18773;DHT22;9515;50.810;4.418;2022-07-15T18:04:09;26.60;99.90
18773;DHT22;9515;50.810;4.418;2022-07-15T18:06:35;26.40;99.90
18773;DHT22;9515;50.810;4.418;2022-07-15T18:09:01;26.30;99.90
18773;DHT22;9515;50.810;4.418;2022-07-15T18:11:27;26.50;99.90
18773;DHT22;9515;50.810;4.418;2022-07-15T18:13:52;26.60;99.90
18773;DHT22;9515;50.810;4.418;2022-07-15T18:16:18;26.70;99.90
18773;DHT22;9515;50.810;4.418;2022-07-15T18:18:44;26.50;99.90
18773;DHT22;9515;50.810;4.418;2022-07-15T18:21:10;26.50;99.90
18773;DHT22;9515;50.810;4.418;2022-07-15T18:23:35;26.50;99.90
18773;DHT22;9515;50.810;4.418;2022-07-15T18:26:02;26.40;99.90
18773;DHT22;9515;50.810;4.418;2022-07-15T18:28:28;26.50;99.90
18773;DHT22;9515;50.810;4.418;2022-07-15T18:30:53;26.50;99.90
18773;DHT22;9515;50.810;4.418;2022-07-15T18:33:19;26.30;99.90
18773;DHT22;9515;50.810;4.418;2022-07-15T18:35:45;26.30;99.90
18773;DHT22;9515;50.810;4.418;2022-07-15T18:38:11;26.20;99.90
18773;DHT22;9515;50.810;4.418;2022-07-15T18:41:00;26.20;99.90
18773;DHT22;9515;50.810;4.418;2022-07-15T18:43:27;26.10;99.90
18773;DHT22;9515;50.810;4.418;2022-07-15T18:45:53;26.10;99.90
18773;DHT22;9515;50.810;4.418;2022-07-15T18:48:20;26.00;99.90
18773;DHT22;9515;50.810;4.418;2022-07-15T18:50:46;25.80;99.90
18773;DHT22;9515;50.810;4.418;2022-07-15T18:53:12;25.60;99.90
18773;DHT22;9515;50.810;4.418;2022-07-15T18:55:38;25.50;99.90
18773;DHT22;9515;50.810;4.418;2022-07-15T18:58:04;25.50;99.90
18773;DHT22;9515;50.810;4.418;2022-07-15T19:00:29;25.20;99.90
18773;DHT22;9515;50.810;4.418;2022-07-15T19:02:55;25.20;99.90
18773;DHT22;9515;50.810;4.418;2022-07-15T19:05:21;25.30;99.90
18773;DHT22;9515;50.810;4.418;2022-07-15T19:07:46;25.20;99.90
18773;DHT22;9515;50.810;4.418;2022-07-15T19:10:13;25.20;99.90
18773;DHT22;9515;50.810;4.418;2022-07-15T19:12:39;25.00;99.90
18773;DHT22;9515;50.810;4.418;2022-07-15T19:15:06;24.90;99.90
18773;DHT22;9515;50.810;4.418;2022-07-15T19:17:32;24.90;99.90
18773;DHT22;9515;50.810;4.418;2022-07-15T19:19:58;24.70;99.90
18773;DHT22;9515;50.810;4.418;2022-07-15T19:22:24;24.80;99.90
18773;DHT22;9515;50.810;4.418;2022-07-15T19:24:49;24.80;99.90
18773;DHT22;9515;50.810;4.418;2022-07-15T19:27:15;24.80;99.90
18773;DHT22;9515;50.810;4.418;2022-07-15T19:29:41;24.70;99.90
18773;DHT22;9515;50.810;4.418;2022-07-15T19:32:06;24.70;99.90
18773;DHT22;9515;50.810;4.418;2022-07-15T19:34:32;24.60;99.90
18773;DHT22;9515;50.810;4.418;2022-07-15T19:36:58;24.50;99.90
18773;DHT22;9515;50.810;4.418;2022-07-15T19:39:24;24.50;99.90
18773;DHT22;9515;50.810;4.418;2022-07-15T19:41:49;24.50;99.90
18773;DHT22;9515;50.810;4.418;2022-07-15T19:44:16;24.50;99.90
18773;DHT22;9515;50.810;4.418;2022-07-15T19:46:42;24.50;99.90
18773;DHT22;9515;50.810;4.418;2022-07-15T19:49:09;24.40;99.90
18773;DHT22;9515;50.810;4.418;2022-07-15T19:51:35;24.40;99.90
18773;DHT22;9515;50.810;4.418;2022-07-15T19:54:01;24.40;99.90
18773;DHT22;9515;50.810;4.418;2022-07-15T19:56:26;24.40;99.90
18773;DHT22;9515;50.810;4.418;2022-07-15T19:58:52;24.40;99.90
18773;DHT22;9515;50.810;4.418;2022-07-15T20:01:38;24.30;99.90
18773;DHT22;9515;50.810;4.418;2022-07-15T20:04:04;24.30;99.90
18773;DHT22;9515;50.810;4.418;2022-07-15T20:06:29;24.30;99.90
18773;DHT22;9515;50.810;4.418;2022-07-15T20:08:56;24.30;99.90
18773;DHT22;9515;50.810;4.418;2022-07-15T20:11:22;24.20;99.90
18773;DHT22;9515;50.810;4.418;2022-07-15T20:13:48;24.20;99.90
18773;DHT22;9515;50.810;4.418;2022-07-15T20:16:14;24.10;99.90
18773;DHT22;9515;50.810;4.418;2022-07-15T20:18:40;24.00;99.90
18773;DHT22;9515;50.810;4.418;2022-07-15T20:21:06;24.00;99.90
18773;DHT22;9515;50.810;4.418;2022-07-15T20:23:31;23.90;99.90
18773;DHT22;9515;50.810;4.418;2022-07-15T20:25:57;24.00;99.90
18773;DHT22;9515;50.810;4.418;2022-07-15T20:28:22;23.90;99.90
18773;DHT22;9515;50.810;4.418;2022-07-15T20:30:49;23.90;99.90
18773;DHT22;9515;50.810;4.418;2022-07-15T20:33:15;23.90;99.90
18773;DHT22;9515;50.810;4.418;2022-07-15T20:35:42;23.90;99.90
18773;DHT22;9515;50.810;4.418;2022-07-15T20:38:07;23.80;99.90
18773;DHT22;9515;50.810;4.418;2022-07-15T20:40:33;23.70;99.90
18773;DHT22;9515;50.810;4.418;2022-07-15T20:42:59;23.70;99.90
18773;DHT22;9515;50.810;4.418;2022-07-15T20:45:25;23.70;99.90
18773;DHT22;9515;50.810;4.418;2022-07-15T20:47:51;23.50;99.90
18773;DHT22;9515;50.810;4.418;2022-07-15T20:50:16;23.50;99.90
18773;DHT22;9515;50.810;4.418;2022-07-15T20:52:42;23.40;99.90
18773;DHT22;9515;50.810;4.418;2022-07-15T20:55:08;23.20;99.90
18773;DHT22;9515;50.810;4.418;2022-07-15T20:57:35;23.10;99.90
18773;DHT22;9515;50.810;4.418;2022-07-15T21:00:01;22.80;99.90
18773;DHT22;9515;50.810;4.418;2022-07-15T21:02:27;22.50;99.90
18773;DHT22;9515;50.810;4.418;2022-07-15T21:04:52;22.60;99.90
18773;DHT22;9515;50.810;4.418;2022-07-15T21:07:18;22.60;99.90
18773;DHT22;9515;50.810;4.418;2022-07-15T21:09:44;22.60;99.90
18773;DHT22;9515;50.810;4.418;2022-07-15T21:12:09;22.60;99.90
18773;DHT22;9515;50.810;4.418;2022-07-15T21:14:35;22.50;99.90
18773;DHT22;9515;50.810;4.418;2022-07-15T21:17:02;22.50;99.90
18773;DHT22;9515;50.810;4.418;2022-07-15T21:19:27;22.30;99.90
18773;DHT22;9515;50.810;4.418;2022-07-15T21:21:53;22.20;99.90
18773;DHT22;9515;50.810;4.418;2022-07-15T21:24:19;22.20;99.90
18773;DHT22;9515;50.810;4.418;2022-07-15T21:27:03;22.10;99.90
18773;DHT22;9515;50.810;4.418;2022-07-15T21:29:29;21.90;99.90
18773;DHT22;9515;50.810;4.418;2022-07-15T21:31:54;21.90;99.90
18773;DHT22;9515;50.810;4.418;2022-07-15T21:34:20;21.90;99.90
18773;DHT22;9515;50.810;4.418;2022-07-15T21:36:46;21.80;99.90
18773;DHT22;9515;50.810;4.418;2022-07-15T21:39:11;21.80;99.90
18773;DHT22;9515;50.810;4.418;2022-07-15T21:41:37;21.70;99.90
18773;DHT22;9515;50.810;4.418;2022-07-15T21:44:03;21.60;99.90
18773;DHT22;9515;50.810;4.418;2022-07-15T21:46:29;21.50;99.90
18773;DHT22;9515;50.810;4.418;2022-07-15T21:48:54;21.30;99.90
18773;DHT22;9515;50.810;4.418;2022-07-15T21:51:20;21.00;99.90
18773;DHT22;9515;50.810;4.418;2022-07-15T21:53:46;20.80;99.90
18773;DHT22;9515;50.810;4.418;2022-07-15T21:56:12;20.60;99.90
18773;DHT22;9515;50.810;4.418;2022-07-15T21:58:38;20.20;99.90
18773;DHT22;9515;50.810;4.418;2022-07-15T22:01:04;20.10;99.90
18773;DHT22;9515;50.810;4.418;2022-07-15T22:03:30;19.80;99.90
18773;DHT22;9515;50.810;4.418;2022-07-15T22:05:56;19.80;99.90
18773;DHT22;9515;50.810;4.418;2022-07-15T22:08:21;19.90;99.90
18773;DHT22;9515;50.810;4.418;2022-07-15T22:10:47;19.80;99.90
18773;DHT22;9515;50.810;4.418;2022-07-15T22:13:13;19.90;99.90
18773;DHT22;9515;50.810;4.418;2022-07-15T22:15:39;20.00;99.90
18773;DHT22;9515;50.810;4.418;2022-07-15T22:18:04;20.10;99.90
18773;DHT22;9515;50.810;4.418;2022-07-15T22:20:30;20.00;99.90
18773;DHT22;9515;50.810;4.418;2022-07-15T22:22:56;20.00;99.90
18773;DHT22;9515;50.810;4.418;2022-07-15T22:25:22;19.80;99.90
18773;DHT22;9515;50.810;4.418;2022-07-15T22:27:47;19.80;99.90
18773;DHT22;9515;50.810;4.418;2022-07-15T22:30:13;19.90;99.90
18773;DHT22;9515;50.810;4.418;2022-07-15T22:32:43;20.00;99.90
18773;DHT22;9515;50.810;4.418;2022-07-15T22:35:09;20.00;99.90
18773;DHT22;9515;50.810;4.418;2022-07-15T22:37:35;20.00;99.90
18773;DHT22;9515;50.810;4.418;2022-07-15T22:40:01;20.00;99.90
18773;DHT22;9515;50.810;4.418;2022-07-15T22:42:27;19.80;99.90
18773;DHT22;9515;50.810;4.418;2022-07-15T22:44:54;19.90;99.90
18773;DHT22;9515;50.810;4.418;2022-07-15T22:47:20;19.90;99.90
18773;DHT22;9515;50.810;4.418;2022-07-15T22:49:46;19.90;99.90
18773;DHT22;9515;50.810;4.418;2022-07-15T22:52:12;19.70;99.90
18773;DHT22;9515;50.810;4.418;2022-07-15T22:54:37;19.70;99.90
18773;DHT22;9515;50.810;4.418;2022-07-15T22:57:03;19.50;99.90
18773;DHT22;9515;50.810;4.418;2022-07-15T22:59:29;19.40;99.90
18773;DHT22;9515;50.810;4.418;2022-07-15T23:01:55;19.50;99.90
18773;DHT22;9515;50.810;4.418;2022-07-15T23:04:20;19.60;99.90
18773;DHT22;9515;50.810;4.418;2022-07-15T23:06:46;19.60;99.90
18773;DHT22;9515;50.810;4.418;2022-07-15T23:09:12;19.60;99.90
18773;DHT22;9515;50.810;4.418;2022-07-15T23:11:38;19.50;99.90
18773;DHT22;9515;50.810;4.418;2022-07-15T23:14:04;19.50;99.90
18773;DHT22;9515;50.810;4.418;2022-07-15T23:16:30;19.40;99.90
18773;DHT22;9515;50.810;4.418;2022-07-15T23:18:56;19.40;99.90
18773;DHT22;9515;50.810;4.418;2022-07-15T23:21:22;19.40;99.90
18773;DHT22;9515;50.810;4.418;2022-07-15T23:23:47;19.30;99.90
18773;DHT22;9515;50.810;4.418;2022-07-15T23:26:13;19.30;99.90
18773;DHT22;9515;50.810;4.418;2022-07-15T23:28:38;19.30;99.90
18773;DHT22;9515;50.810;4.418;2022-07-15T23:31:04;19.30;99.90
18773;DHT22;9515;50.810;4.418;2022-07-15T23:33:30;19.30;99.90
18773;DHT22;9515;50.810;4.418;2022-07-15T23:35:56;19.30;99.90
18773;DHT22;9515;50.810;4.418;2022-07-15T23:38:21;19.30;99.90
18773;DHT22;9515;50.810;4.418;2022-07-15T23:40:47;19.20;99.90
18773;DHT22;9515;50.810;4.418;2022-07-15T23:43:13;19.30;99.90
18773;DHT22;9515;50.810;4.418;2022-07-15T23:45:38;19.30;99.90
18773;DHT22;9515;50.810;4.418;2022-07-15T23:48:04;19.30;99.90
18773;DHT22;9515;50.810;4.418;2022-07-15T23:50:30;19.30;99.90
18773;DHT22;9515;50.810;4.418;2022-07-15T23:52:55;19.20;99.90
18773;DHT22;9515;50.810;4.418;2022-07-15T23:55:21;19.10;99.90
18773;DHT22;9515;50.810;4.418;2022-07-15T23:57:47;19.00;99.90
